createdAt,value
2019-02-07T00:01:59.765Z,84.93
2019-02-07T00:04:29.169Z,70.10
2019-02-07T00:06:58.678Z,82.67
2019-02-07T00:09:28.561Z,72.67
2019-02-07T00:11:57.938Z,79.07
2019-02-07T00:14:27.592Z,72.10
2019-02-07T00:16:57.018Z,84.80
2019-02-07T00:19:26.448Z,84.63
2019-02-07T00:21:55.951Z,81.43
2019-02-07T00:24:25.864Z,85.17
2019-02-07T00:26:55.222Z,96.60
2019-02-07T00:29:24.739Z,77.60
2019-02-07T00:31:54.252Z,96.93
2019-02-07T00:34:23.802Z,88.53
2019-02-07T00:36:53.315Z,82.37
2019-02-07T00:39:23.175Z,77.60
2019-02-07T00:41:52.618Z,68.17
2019-02-07T00:44:22.031Z,96.00
2019-02-07T00:46:51.522Z,84.43
2019-02-07T00:49:20.978Z,81.37
2019-02-07T00:51:50.463Z,87.40
2019-02-07T00:54:19.906Z,76.40
2019-02-07T00:56:49.292Z,75.30
2019-02-07T00:59:18.833Z,89.73
2019-02-07T01:01:48.223Z,76.00
2019-02-07T01:04:17.777Z,94.47
2019-02-07T01:07:06.476Z,77.17
2019-02-07T01:09:36.001Z,79.53
2019-02-07T01:12:06.225Z,71.90
2019-02-07T01:14:35.709Z,90.23
2019-02-07T01:17:05.418Z,73.67
2019-02-07T01:19:35.193Z,79.00
2019-02-07T01:22:04.796Z,83.40
2019-02-07T01:24:34.263Z,75.00
2019-02-07T01:27:03.821Z,65.53
2019-02-07T01:29:33.342Z,62.50
2019-02-07T01:32:02.733Z,60.97
2019-02-07T01:34:32.139Z,67.17
2019-02-07T01:37:01.809Z,60.17
2019-02-07T01:39:31.234Z,68.73
2019-02-07T01:42:00.624Z,75.40
2019-02-07T01:44:30.084Z,62.73
2019-02-07T01:46:59.535Z,71.43
2019-02-07T01:49:29.123Z,75.77
2019-02-07T01:51:58.595Z,65.07
2019-02-07T01:54:28.087Z,75.77
2019-02-07T01:56:57.610Z,78.20
2019-02-07T01:59:26.954Z,60.27
2019-02-07T02:01:56.376Z,70.20
2019-02-07T02:04:25.920Z,68.87
2019-02-07T02:06:55.402Z,68.97
2019-02-07T02:09:24.818Z,87.33
2019-02-07T02:11:54.337Z,47.60
2019-02-07T02:14:23.719Z,75.30
2019-02-07T02:16:53.246Z,69.73
2019-02-07T02:19:22.773Z,68.73
2019-02-07T02:21:52.194Z,76.03
2019-02-07T02:24:21.646Z,79.37
2019-02-07T02:26:51.993Z,86.23
2019-02-07T02:29:21.504Z,78.47
2019-02-07T02:31:51.229Z,81.77
2019-02-07T02:34:20.661Z,80.03
2019-02-07T02:36:50.193Z,82.97
2019-02-07T02:39:19.645Z,91.50
2019-02-07T02:41:49.164Z,84.83
2019-02-07T02:44:18.734Z,93.97
2019-02-07T02:46:48.516Z,80.13
2019-02-07T02:49:18.048Z,81.60
2019-02-07T02:51:47.526Z,90.93
2019-02-07T02:54:35.151Z,79.87
2019-02-07T02:57:04.923Z,88.30
2019-02-07T02:59:34.961Z,90.97
2019-02-07T03:02:24.230Z,84.63
2019-02-07T03:05:18.366Z,74.73
2019-02-07T03:08:05.635Z,78.60
2019-02-07T03:10:47.544Z,77.17
2019-02-07T03:13:25.216Z,78.87
2019-02-07T03:16:10.347Z,66.70
2019-02-07T03:18:57.851Z,68.13
2019-02-07T03:21:36.360Z,74.47
2019-02-07T03:24:25.391Z,71.63
2019-02-07T03:27:12.618Z,67.90
2019-02-07T03:30:00.967Z,91.23
2019-02-07T03:32:41.032Z,78.53
2019-02-07T03:35:28.896Z,82.23
2019-02-07T03:38:17.728Z,85.30
2019-02-07T03:41:09.409Z,84.73
2019-02-07T03:43:56.871Z,72.23
2019-02-07T03:46:51.515Z,79.73
2019-02-07T03:49:31.909Z,81.90
2019-02-07T03:52:23.276Z,63.47
2019-02-07T03:55:26.958Z,78.20
2019-02-07T03:58:14.380Z,64.27
2019-02-07T04:01:05.770Z,70.67
2019-02-07T04:03:52.803Z,90.47
2019-02-07T04:06:42.129Z,90.03
2019-02-07T04:09:36.697Z,86.10
2019-02-07T04:12:24.231Z,96.63
2019-02-07T04:15:18.587Z,75.47
2019-02-07T04:18:13.611Z,72.53
2019-02-07T04:21:06.588Z,70.23
2019-02-07T04:23:53.601Z,65.13
2019-02-07T04:26:47.218Z,68.20
2019-02-07T04:29:29.157Z,85.10
2019-02-07T04:32:32.542Z,94.33
2019-02-07T04:35:26.441Z,85.17
2019-02-07T04:38:16.471Z,80.10
2019-02-07T04:40:56.876Z,54.97
2019-02-07T04:43:44.068Z,75.97
2019-02-07T04:46:27.248Z,85.20
2019-02-07T04:49:07.828Z,67.30
2019-02-07T04:51:59.218Z,74.93
2019-02-07T04:54:36.647Z,46.13
2019-02-07T04:57:22.469Z,46.40
2019-02-07T05:00:10.096Z,74.80
2019-02-07T05:02:58.750Z,78.20
2019-02-07T05:05:36.201Z,63.80
2019-02-07T05:08:22.533Z,51.07
2019-02-07T05:11:26.185Z,77.27
2019-02-07T05:14:13.450Z,60.63
2019-02-07T05:17:16.901Z,82.67
2019-02-07T05:20:01.270Z,50.30
2019-02-07T05:22:49.720Z,76.50
2019-02-07T05:25:29.874Z,90.43
2019-02-07T05:28:17.066Z,77.30
2019-02-07T05:31:05.538Z,73.37
2019-02-07T05:34:03.022Z,75.77
2019-02-07T05:36:50.001Z,70.20
2019-02-07T05:39:37.355Z,83.47
2019-02-07T05:42:44.264Z,75.53
2019-02-07T05:45:32.787Z,62.60
2019-02-07T05:48:22.378Z,71.07
2019-02-07T05:51:23.072Z,58.23
2019-02-07T05:54:08.226Z,70.90
2019-02-07T05:56:58.910Z,62.50
2019-02-07T05:59:53.353Z,45.07
2019-02-07T06:02:33.151Z,75.13
2019-02-07T06:05:26.050Z,65.20
2019-02-07T06:08:13.422Z,63.37
2019-02-07T06:10:52.863Z,69.83
2019-02-07T06:13:44.335Z,68.30
2019-02-07T06:16:28.606Z,68.33
2019-02-07T06:19:22.811Z,64.20
2019-02-07T06:22:11.336Z,73.27
2019-02-07T06:25:11.762Z,59.37
2019-02-07T06:28:05.961Z,64.13
2019-02-07T06:30:53.264Z,61.47
2019-02-07T06:33:32.785Z,62.57
2019-02-07T06:36:19.125Z,68.67
2019-02-07T06:39:00.615Z,70.57
2019-02-07T06:41:48.045Z,79.77
2019-02-07T06:44:35.085Z,64.87
2019-02-07T06:47:29.549Z,61.50
2019-02-07T06:50:11.073Z,65.57
2019-02-07T06:53:11.203Z,60.67
2019-02-07T06:56:14.062Z,61.00
2019-02-07T06:59:01.170Z,64.07
2019-02-07T07:01:45.759Z,56.80
2019-02-07T07:04:34.122Z,61.17
2019-02-07T07:07:22.506Z,63.37
2019-02-07T07:10:11.766Z,55.97
2019-02-07T07:12:53.966Z,56.63
2019-02-07T07:16:00.515Z,58.17
2019-02-07T07:18:51.692Z,52.67
2019-02-07T07:21:39.085Z,38.70
2019-02-07T07:24:26.183Z,53.60
2019-02-07T07:27:11.819Z,61.10
2019-02-07T07:29:59.188Z,46.93
2019-02-07T07:32:48.735Z,49.07
2019-02-07T07:35:36.027Z,44.33
2019-02-07T07:38:22.142Z,51.43
2019-02-07T07:41:19.557Z,53.00
2019-02-07T07:44:00.484Z,63.57
2019-02-07T07:46:54.842Z,45.67
2019-02-07T07:50:04.973Z,50.73
2019-02-07T07:52:53.486Z,48.33
2019-02-07T07:55:45.238Z,49.53
2019-02-07T07:58:42.559Z,30.90
2019-02-07T08:01:40.066Z,30.50
2019-02-07T08:04:40.708Z,39.83
2019-02-07T08:07:31.874Z,43.90
2019-02-07T08:10:38.874Z,45.83
2019-02-07T08:13:26.525Z,42.77
2019-02-07T08:16:14.932Z,43.60
2019-02-07T08:19:09.766Z,32.10
2019-02-07T08:21:48.525Z,40.13
2019-02-07T08:24:34.686Z,43.33
2019-02-07T08:27:32.015Z,32.87
2019-02-07T08:30:19.808Z,40.07
2019-02-07T08:33:20.036Z,26.87
2019-02-07T08:36:07.513Z,32.73
2019-02-07T08:38:55.834Z,17.63
2019-02-07T08:41:54.036Z,26.47
2019-02-07T08:44:33.422Z,38.73
2019-02-07T08:47:19.354Z,45.63
2019-02-07T08:50:06.743Z,31.60
2019-02-07T08:52:55.125Z,29.63
2019-02-07T08:55:42.050Z,29.13
2019-02-07T08:58:40.716Z,19.40
2019-02-07T09:01:41.354Z,31.53
2019-02-07T09:04:45.114Z,25.73
2019-02-07T09:07:36.691Z,32.13
2019-02-07T09:10:27.138Z,36.67
2019-02-07T09:13:21.747Z,34.27
2019-02-07T09:16:13.306Z,33.90
2019-02-07T09:19:14.126Z,32.27
2019-02-07T09:22:09.387Z,34.87
2019-02-07T09:25:09.931Z,23.80
2019-02-07T09:28:04.127Z,36.13
2019-02-07T09:31:01.676Z,23.63
2019-02-07T09:33:59.323Z,29.60
2019-02-07T09:36:37.603Z,27.63
2019-02-07T09:39:40.454Z,40.37
2019-02-07T09:42:35.146Z,38.10
2019-02-07T09:45:33.385Z,24.53
2019-02-07T09:48:21.926Z,33.03
2019-02-07T09:51:28.638Z,35.37
2019-02-07T09:54:10.313Z,30.67
2019-02-07T09:57:01.409Z,35.67
2019-02-07T09:59:56.197Z,31.90
2019-02-07T10:02:40.312Z,31.43
2019-02-07T10:05:36.894Z,36.03
2019-02-07T10:08:24.240Z,26.77
2019-02-07T10:11:24.473Z,25.47
2019-02-07T10:14:28.159Z,33.47
2019-02-07T10:17:15.366Z,26.13
2019-02-07T10:20:08.942Z,22.50
2019-02-07T10:22:48.181Z,17.37
2019-02-07T10:25:36.938Z,34.90
2019-02-07T10:28:26.451Z,25.03
2019-02-07T10:31:14.795Z,24.13
2019-02-07T10:34:03.147Z,24.57
2019-02-07T10:36:47.013Z,26.77
2019-02-07T10:39:35.374Z,21.37
2019-02-07T10:42:23.303Z,26.00
2019-02-07T10:45:10.279Z,22.67
2019-02-07T10:48:07.886Z,20.93
2019-02-07T10:50:48.771Z,25.47
2019-02-07T10:53:36.333Z,23.97
2019-02-07T10:56:22.328Z,22.57
2019-02-07T10:59:05.503Z,30.20
2019-02-07T11:01:57.468Z,19.87
2019-02-07T11:04:38.171Z,26.60
2019-02-07T11:07:32.559Z,32.17
2019-02-07T11:10:13.942Z,25.10
2019-02-07T11:13:01.295Z,24.87
2019-02-07T11:15:55.447Z,33.23
2019-02-07T11:18:42.572Z,29.93
2019-02-07T11:21:29.701Z,19.53
2019-02-07T11:24:23.586Z,30.27
2019-02-07T11:27:10.922Z,27.47
2019-02-07T11:30:01.817Z,28.13
2019-02-07T11:32:59.627Z,26.03
2019-02-07T11:35:59.827Z,29.03
2019-02-07T11:38:53.946Z,23.37
2019-02-07T11:41:45.301Z,26.87
2019-02-07T11:44:24.806Z,37.43
2019-02-07T11:47:13.117Z,30.93
2019-02-07T11:50:05.471Z,28.30
2019-02-07T11:52:43.643Z,33.00
2019-02-07T11:55:35.213Z,27.60
2019-02-07T11:58:27.529Z,29.47
2019-02-07T12:01:26.424Z,23.87
2019-02-07T12:04:17.793Z,27.20
2019-02-07T12:07:09.408Z,24.03
2019-02-07T12:09:51.531Z,30.60
2019-02-07T12:12:39.984Z,31.40
2019-02-07T12:15:28.090Z,34.07
2019-02-07T12:18:14.928Z,27.20
2019-02-07T12:21:06.518Z,32.10
2019-02-07T12:23:54.115Z,33.90
2019-02-07T12:26:33.203Z,28.70
2019-02-07T12:29:17.936Z,24.47
2019-02-07T12:32:10.730Z,36.17
2019-02-07T12:35:02.005Z,26.63
2019-02-07T12:37:50.328Z,28.50
2019-02-07T12:40:31.211Z,30.37
2019-02-07T12:43:18.635Z,19.97
2019-02-07T12:46:13.242Z,23.80
2019-02-07T12:49:07.756Z,18.73
2019-02-07T12:51:51.745Z,25.60
2019-02-07T12:54:40.139Z,30.03
2019-02-07T12:57:27.506Z,35.73
2019-02-07T13:00:15.853Z,31.47
2019-02-07T13:03:13.532Z,30.80
2019-02-07T13:05:59.891Z,33.27
2019-02-07T13:08:47.242Z,25.87
2019-02-07T13:11:32.943Z,36.17
2019-02-07T13:14:19.917Z,31.70
2019-02-07T13:17:08.350Z,37.73
2019-02-07T13:19:48.096Z,37.33
2019-02-07T13:22:30.571Z,36.67
2019-02-07T13:25:17.990Z,29.33
2019-02-07T13:28:05.177Z,29.63
2019-02-07T13:30:52.268Z,37.77
2019-02-07T13:33:56.012Z,32.83
2019-02-07T13:36:36.523Z,38.57
2019-02-07T13:39:39.710Z,33.87
2019-02-07T13:42:26.870Z,31.27
2019-02-07T13:45:23.688Z,33.33
2019-02-07T13:48:15.061Z,30.40
2019-02-07T13:51:06.252Z,34.27
2019-02-07T13:54:09.830Z,33.37
2019-02-07T13:56:59.267Z,36.30
2019-02-07T13:59:50.901Z,26.20
2019-02-07T14:02:48.644Z,34.07
2019-02-07T14:05:50.498Z,32.57
2019-02-07T14:08:40.470Z,39.90
2019-02-07T14:11:24.479Z,40.00
2019-02-07T14:14:15.693Z,42.03
2019-02-07T14:17:02.600Z,36.70
2019-02-07T14:20:02.975Z,34.47
2019-02-07T14:22:43.182Z,39.87
2019-02-07T14:25:30.985Z,33.07
2019-02-07T14:28:13.294Z,31.43
2019-02-07T14:31:06.318Z,45.27
2019-02-07T14:34:10.501Z,41.77
2019-02-07T14:37:14.346Z,41.00
2019-02-07T14:40:05.499Z,35.57
2019-02-07T14:43:03.067Z,37.67
2019-02-07T14:46:01.475Z,35.13
2019-02-07T14:48:31.070Z,40.90
2019-02-07T14:51:00.646Z,37.13
2019-02-07T14:53:30.077Z,39.20
2019-02-07T14:56:01.330Z,37.87
2019-02-07T14:58:31.389Z,43.80
2019-02-07T15:01:00.944Z,54.07
2019-02-07T15:03:32.071Z,45.57
2019-02-07T15:06:01.587Z,50.47
2019-02-07T15:08:31.076Z,42.90
2019-02-07T15:11:00.578Z,39.50
2019-02-07T15:13:30.046Z,42.60
2019-02-07T15:15:59.639Z,42.37
2019-02-07T15:18:29.082Z,47.07
2019-02-07T15:20:58.595Z,39.07
2019-02-07T15:23:28.145Z,40.63
2019-02-07T15:25:57.758Z,46.83
2019-02-07T15:28:27.218Z,46.27
2019-02-07T15:30:56.677Z,46.20
2019-02-07T15:33:26.119Z,47.40
2019-02-07T15:35:55.704Z,46.37
2019-02-07T15:38:25.250Z,54.13
2019-02-07T15:40:54.817Z,48.80
2019-02-07T15:43:24.386Z,43.27
2019-02-07T15:45:54.147Z,43.00
2019-02-07T15:48:23.576Z,50.40
2019-02-07T15:50:53.087Z,50.73
2019-02-07T15:53:22.586Z,49.27
2019-02-07T15:55:52.228Z,45.00
2019-02-07T15:58:29.657Z,49.63
2019-02-07T16:01:19.305Z,48.40
2019-02-07T16:04:07.742Z,45.93
2019-02-07T16:06:37.215Z,47.77
2019-02-07T16:09:08.611Z,48.13
2019-02-07T16:11:38.187Z,47.30
2019-02-07T16:14:07.982Z,43.97
2019-02-07T16:16:37.454Z,44.67
2019-02-07T16:19:06.915Z,42.23
2019-02-07T16:21:36.695Z,41.07
2019-02-07T16:24:06.997Z,38.43
2019-02-07T16:26:36.642Z,43.67
2019-02-07T16:29:06.356Z,47.97
2019-02-07T16:31:36.072Z,38.83
2019-02-07T16:34:05.945Z,41.83
2019-02-07T16:36:36.095Z,35.07
2019-02-07T16:39:08.954Z,47.43
2019-02-07T16:41:38.358Z,41.77
2019-02-07T16:44:07.806Z,41.93
2019-02-07T16:46:37.409Z,37.77
2019-02-07T16:49:07.107Z,39.90
2019-02-07T16:51:36.508Z,47.97
2019-02-07T16:54:05.949Z,41.17
2019-02-07T16:56:35.351Z,42.43
2019-02-07T16:59:04.891Z,42.43
2019-02-07T17:01:34.337Z,35.73
2019-02-07T17:04:04.737Z,43.30
2019-02-07T17:06:34.156Z,42.90
2019-02-07T17:09:05.916Z,35.57
2019-02-07T17:11:35.386Z,39.17
2019-02-07T17:14:05.937Z,39.53
2019-02-07T17:16:35.627Z,38.23
2019-02-07T17:19:05.479Z,43.13
2019-02-07T17:21:35.167Z,40.43
2019-02-07T17:24:04.638Z,29.77
2019-02-07T17:26:34.127Z,34.90
2019-02-07T17:29:03.658Z,33.83
2019-02-07T17:31:33.712Z,31.13
2019-02-07T17:34:03.318Z,30.33
2019-02-07T17:36:32.745Z,30.83
2019-02-07T17:39:02.322Z,30.10
2019-02-07T17:41:32.278Z,31.77
2019-02-07T17:44:01.728Z,33.53
2019-02-07T17:46:31.142Z,34.27
2019-02-07T17:49:00.744Z,38.60
2019-02-07T17:51:30.436Z,33.30
2019-02-07T17:54:00.068Z,45.33
2019-02-07T17:56:29.713Z,35.37
2019-02-07T17:58:59.209Z,35.87
2019-02-07T18:01:28.649Z,40.40
2019-02-07T18:03:58.140Z,40.23
2019-02-07T18:06:27.586Z,26.93
2019-02-07T18:08:57.003Z,42.90
2019-02-07T18:11:26.571Z,45.53
2019-02-07T18:13:56.003Z,42.53
2019-02-07T18:16:25.536Z,38.77
2019-02-07T18:18:55.263Z,35.33
2019-02-07T18:21:34.758Z,50.27
2019-02-07T18:24:04.690Z,40.03
2019-02-07T18:26:34.068Z,48.03
2019-02-07T18:29:03.495Z,51.53
2019-02-07T18:31:33.389Z,58.43
2019-02-07T18:34:03.431Z,44.83
2019-02-07T18:36:32.890Z,45.23
2019-02-07T18:39:02.346Z,51.83
2019-02-07T18:41:31.688Z,42.93
2019-02-07T18:44:01.283Z,50.00
2019-02-07T18:46:31.023Z,40.20
2019-02-07T18:49:00.409Z,36.47
2019-02-07T18:51:29.893Z,45.77
2019-02-07T18:53:59.669Z,48.60
2019-02-07T18:56:29.184Z,43.33
2019-02-07T18:58:58.722Z,40.87
2019-02-07T19:01:28.429Z,44.03
2019-02-07T19:03:57.874Z,44.63
2019-02-07T19:06:27.329Z,45.03
2019-02-07T19:08:56.742Z,40.07
2019-02-07T19:11:26.182Z,46.73
2019-02-07T19:13:55.622Z,42.70
2019-02-07T19:16:25.561Z,43.43
2019-02-07T19:18:55.024Z,49.87
2019-02-07T19:21:26.506Z,43.00
2019-02-07T19:23:55.943Z,35.73
2019-02-07T19:26:25.469Z,45.80
2019-02-07T19:28:54.932Z,49.37
2019-02-07T19:31:24.690Z,42.17
2019-02-07T19:33:54.105Z,43.77
2019-02-07T19:36:23.546Z,49.63
2019-02-07T19:38:53.014Z,44.20
2019-02-07T19:41:22.382Z,37.83
2019-02-07T19:43:51.961Z,51.47
2019-02-07T19:46:21.416Z,47.00
2019-02-07T19:48:50.945Z,43.43
2019-02-07T19:51:20.386Z,46.40
2019-02-07T19:53:49.800Z,49.60
2019-02-07T19:56:19.246Z,44.33
2019-02-07T19:58:48.678Z,43.23
2019-02-07T20:01:18.080Z,54.67
2019-02-07T20:03:47.635Z,33.33
2019-02-07T20:06:17.138Z,47.93
2019-02-07T20:08:47.253Z,47.23
2019-02-07T20:11:16.802Z,37.83
2019-02-07T20:13:46.297Z,46.30
2019-02-07T20:16:15.729Z,53.03
2019-02-07T20:18:45.447Z,38.80
2019-02-07T20:21:15.137Z,52.77
2019-02-07T20:23:44.711Z,49.83
2019-02-07T20:26:14.233Z,50.10
2019-02-07T20:28:43.655Z,49.57
2019-02-07T20:31:13.161Z,48.50
2019-02-07T20:33:42.655Z,47.77
2019-02-07T20:36:12.079Z,45.43
2019-02-07T20:38:41.646Z,48.63
2019-02-07T20:41:11.074Z,48.73
2019-02-07T20:43:40.522Z,45.73
2019-02-07T20:46:09.962Z,43.43
2019-02-07T20:48:39.367Z,54.97
2019-02-07T20:51:10.294Z,45.17
2019-02-07T20:53:39.781Z,51.90
2019-02-07T20:56:09.279Z,54.00
2019-02-07T20:58:38.783Z,45.27
2019-02-07T21:01:08.346Z,53.23
2019-02-07T21:03:37.943Z,54.53
2019-02-07T21:06:10.566Z,57.07
2019-02-07T21:08:40.054Z,55.37
2019-02-07T21:11:09.454Z,48.63
2019-02-07T21:13:39.117Z,39.37
2019-02-07T21:16:08.528Z,38.93
2019-02-07T21:18:37.928Z,59.70
2019-02-07T21:21:07.422Z,35.90
2019-02-07T21:23:36.890Z,57.50
2019-02-07T21:26:06.412Z,53.73
2019-02-07T21:28:35.897Z,53.57
2019-02-07T21:31:05.647Z,68.23
2019-02-07T21:33:35.074Z,69.97
2019-02-07T21:36:04.589Z,66.27
2019-02-07T21:38:34.362Z,65.27
2019-02-07T21:41:03.804Z,62.23
2019-02-07T21:43:33.352Z,68.70
2019-02-07T21:46:02.851Z,40.33
2019-02-07T21:49:00.190Z,51.17
2019-02-07T21:51:29.687Z,64.07
2019-02-07T21:53:59.481Z,47.70
2019-02-07T21:56:29.009Z,60.63
2019-02-07T21:58:58.520Z,39.03
2019-02-07T22:01:28.035Z,45.37
2019-02-07T22:03:57.672Z,69.27
2019-02-07T22:06:27.091Z,55.20
2019-02-07T22:08:56.486Z,44.73
2019-02-07T22:11:25.952Z,56.20
2019-02-07T22:13:55.396Z,64.37
2019-02-07T22:16:24.858Z,62.90
2019-02-07T22:18:54.307Z,71.17
2019-02-07T22:21:23.837Z,76.93
2019-02-07T22:23:53.360Z,50.00
2019-02-07T22:26:25.370Z,70.23
2019-02-07T22:28:54.827Z,64.13
2019-02-07T22:31:24.270Z,49.43
2019-02-07T22:33:54.125Z,55.37
2019-02-07T22:36:23.584Z,62.30
2019-02-07T22:38:53.044Z,67.37
2019-02-07T22:41:22.550Z,73.73
2019-02-07T22:43:51.906Z,76.23
2019-02-07T22:46:21.387Z,68.40
2019-02-07T22:48:51.190Z,76.23
2019-02-07T22:51:21.047Z,79.33
2019-02-07T22:53:50.591Z,77.50
2019-02-07T22:56:20.030Z,39.43
2019-02-07T22:58:49.478Z,46.63
2019-02-07T23:01:49.603Z,65.40
2019-02-07T23:04:19.858Z,68.43
2019-02-07T23:06:49.327Z,68.67
2019-02-07T23:09:19.245Z,57.50
2019-02-07T23:11:49.455Z,82.70
2019-02-07T23:14:19.014Z,56.20
2019-02-07T23:16:48.423Z,57.47
2019-02-07T23:19:17.867Z,57.87
2019-02-07T23:21:47.421Z,68.87
2019-02-07T23:24:16.849Z,71.10
2019-02-07T23:26:46.275Z,53.70
2019-02-07T23:29:15.807Z,57.63
2019-02-07T23:31:45.311Z,57.67
2019-02-07T23:34:14.751Z,48.57
2019-02-07T23:36:44.348Z,52.50
2019-02-07T23:39:13.973Z,48.53
2019-02-07T23:41:43.350Z,49.70
2019-02-07T23:44:12.830Z,75.60
2019-02-07T23:46:42.268Z,51.73
2019-02-07T23:49:11.722Z,48.67
2019-02-07T23:51:41.110Z,54.47
2019-02-07T23:54:10.538Z,63.57
2019-02-07T23:56:39.872Z,49.43
2019-02-07T23:59:09.626Z,56.67
